createdAt,value
2023-05-20T00:00:50.034Z,3.57
2023-05-20T00:03:17.755Z,3.53
2023-05-20T00:05:45.012Z,3.50
2023-05-20T00:08:12.442Z,3.47
2023-05-20T00:10:40.182Z,4.30
2023-05-20T00:13:07.683Z,4.40
2023-05-20T00:15:36.248Z,3.70
2023-05-20T00:18:04.420Z,4.10
2023-05-20T00:20:31.423Z,3.47
2023-05-20T00:22:58.413Z,4.13
2023-05-20T00:25:25.443Z,4.17
2023-05-20T00:27:52.353Z,3.70
2023-05-20T00:30:19.305Z,3.90
2023-05-20T00:32:46.316Z,3.67
2023-05-20T00:35:13.940Z,4.20
2023-05-20T00:37:40.861Z,4.37
2023-05-20T00:40:08.630Z,4.30
2023-05-20T00:42:35.690Z,4.27
2023-05-20T00:45:02.698Z,4.13
2023-05-20T00:47:34.397Z,4.20
2023-05-20T00:50:01.792Z,4.13
2023-05-20T00:52:32.381Z,3.87
2023-05-20T00:55:00.054Z,2.97
2023-05-20T00:57:27.370Z,4.33
2023-05-20T00:59:54.712Z,3.50
2023-05-20T01:02:22.146Z,4.40
2023-05-20T01:04:49.173Z,3.70
2023-05-20T01:07:18.568Z,3.97
2023-05-20T01:09:46.211Z,4.07
2023-05-20T01:12:33.434Z,4.07
2023-05-20T01:15:08.102Z,4.30
2023-05-20T01:17:48.063Z,3.80
2023-05-20T01:20:16.097Z,4.83
2023-05-20T01:22:56.999Z,4.13
2023-05-20T01:25:27.414Z,3.80
2023-05-20T01:27:57.882Z,3.90
2023-05-20T01:30:31.164Z,3.73
2023-05-20T01:33:09.375Z,3.80
2023-05-20T01:35:37.703Z,4.30
2023-05-20T01:38:06.680Z,4.00
2023-05-20T01:40:34.521Z,4.07
2023-05-20T01:43:02.877Z,4.33
2023-05-20T01:45:29.884Z,4.60
2023-05-20T02:14:53.814Z,3.97
2023-05-20T02:17:20.828Z,4.47
2023-05-20T02:19:47.787Z,3.93
2023-05-20T02:22:15.004Z,4.40
2023-05-20T02:24:43.384Z,3.70
2023-05-20T02:27:10.839Z,4.60
2023-05-20T08:03:37.037Z,5.57
2023-05-20T08:06:04.275Z,5.50
2023-05-20T08:18:23.645Z,5.83
2023-05-20T10:47:31.916Z,8.00
2023-05-20T10:49:59.289Z,7.27
2023-05-20T10:52:26.399Z,7.43
2023-05-20T10:54:59.133Z,7.30
2023-05-20T10:57:29.705Z,7.10
2023-05-20T10:59:57.055Z,6.73
2023-05-20T11:02:27.223Z,8.23
2023-05-20T11:04:58.407Z,7.83
2023-05-20T11:09:57.719Z,7.50
2023-05-20T11:12:26.689Z,8.10
2023-05-20T11:14:54.241Z,7.73
2023-05-20T11:17:21.351Z,7.47
